sensor_id;sensor_type;location;lat;lon;timestamp;P1;durP1;ratioP1;P2;durP2;ratioP2
37051;SDS011;22964;52.272;13.356;2023-07-02T00:00:04;1.33;;;1.10;;
37051;SDS011;22964;52.272;13.356;2023-07-02T00:02:34;1.75;;;1.20;;
37051;SDS011;22964;52.272;13.356;2023-07-02T00:05:03;1.67;;;1.17;;
37051;SDS011;22964;52.272;13.356;2023-07-02T00:07:29;1.85;;;1.20;;
37051;SDS011;22964;52.272;13.356;2023-07-02T00:09:55;2.05;;;1.10;;
37051;SDS011;22964;52.272;13.356;2023-07-02T00:12:21;1.85;;;1.10;;
37051;SDS011;22964;52.272;13.356;2023-07-02T00:14:47;1.50;;;1.13;;
37051;SDS011;22964;52.272;13.356;2023-07-02T00:17:13;1.77;;;1.15;;
37051;SDS011;22964;52.272;13.356;2023-07-02T00:19:39;2.25;;;1.20;;
37051;SDS011;22964;52.272;13.356;2023-07-02T00:22:11;1.40;;;1.08;;
37051;SDS011;22964;52.272;13.356;2023-07-02T00:24:37;1.83;;;1.10;;
37051;SDS011;22964;52.272;13.356;2023-07-02T00:27:03;2.28;;;1.13;;
37051;SDS011;22964;52.272;13.356;2023-07-02T00:29:29;1.65;;;1.30;;
37051;SDS011;22964;52.272;13.356;2023-07-02T00:31:54;3.67;;;1.00;;
37051;SDS011;22964;52.272;13.356;2023-07-02T00:34:22;1.40;;;1.20;;
37051;SDS011;22964;52.272;13.356;2023-07-02T00:36:48;1.67;;;1.17;;
37051;SDS011;22964;52.272;13.356;2023-07-02T00:39:15;1.85;;;1.15;;
37051;SDS011;22964;52.272;13.356;2023-07-02T00:41:43;2.70;;;1.20;;
37051;SDS011;22964;52.272;13.356;2023-07-02T00:44:12;2.08;;;1.20;;
37051;SDS011;22964;52.272;13.356;2023-07-02T00:46:38;1.55;;;1.10;;
37051;SDS011;22964;52.272;13.356;2023-07-02T00:49:04;1.50;;;1.10;;
37051;SDS011;22964;52.272;13.356;2023-07-02T00:51:30;2.38;;;1.10;;
37051;SDS011;22964;52.272;13.356;2023-07-02T00:53:57;1.50;;;1.20;;
37051;SDS011;22964;52.272;13.356;2023-07-02T00:56:23;2.20;;;1.20;;
37051;SDS011;22964;52.272;13.356;2023-07-02T00:58:51;1.58;;;1.20;;
37051;SDS011;22964;52.272;13.356;2023-07-02T01:01:18;1.67;;;1.23;;
37051;SDS011;22964;52.272;13.356;2023-07-02T01:06:19;1.85;;;1.30;;
37051;SDS011;22964;52.272;13.356;2023-07-02T01:08:53;1.95;;;1.38;;
37051;SDS011;22964;52.272;13.356;2023-07-02T01:11:21;2.80;;;1.30;;
37051;SDS011;22964;52.272;13.356;2023-07-02T01:13:50;1.73;;;1.20;;
37051;SDS011;22964;52.272;13.356;2023-07-02T01:16:20;1.52;;;1.30;;
37051;SDS011;22964;52.272;13.356;2023-07-02T01:18:47;2.20;;;1.27;;
37051;SDS011;22964;52.272;13.356;2023-07-02T01:21:16;2.65;;;1.30;;
37051;SDS011;22964;52.272;13.356;2023-07-02T01:23:43;2.58;;;1.30;;
37051;SDS011;22964;52.272;13.356;2023-07-02T01:26:09;2.13;;;1.40;;
37051;SDS011;22964;52.272;13.356;2023-07-02T01:28:35;2.10;;;1.25;;
37051;SDS011;22964;52.272;13.356;2023-07-02T01:31:03;1.98;;;1.48;;
37051;SDS011;22964;52.272;13.356;2023-07-02T01:33:30;3.03;;;1.50;;
37051;SDS011;22964;52.272;13.356;2023-07-02T01:35:56;2.15;;;1.30;;
37051;SDS011;22964;52.272;13.356;2023-07-02T01:38:23;2.20;;;1.30;;
37051;SDS011;22964;52.272;13.356;2023-07-02T01:40:49;1.90;;;1.50;;
37051;SDS011;22964;52.272;13.356;2023-07-02T01:43:14;3.60;;;1.48;;
37051;SDS011;22964;52.272;13.356;2023-07-02T01:45:43;2.35;;;1.48;;
37051;SDS011;22964;52.272;13.356;2023-07-02T01:48:09;2.78;;;1.60;;
37051;SDS011;22964;52.272;13.356;2023-07-02T01:50:35;1.90;;;1.60;;
37051;SDS011;22964;52.272;13.356;2023-07-02T01:53:01;2.95;;;1.65;;
37051;SDS011;22964;52.272;13.356;2023-07-02T01:55:27;2.30;;;1.88;;
37051;SDS011;22964;52.272;13.356;2023-07-02T01:57:52;2.17;;;1.80;;
37051;SDS011;22964;52.272;13.356;2023-07-02T02:00:18;2.05;;;1.60;;
37051;SDS011;22964;52.272;13.356;2023-07-02T02:02:44;2.10;;;1.70;;
37051;SDS011;22964;52.272;13.356;2023-07-02T02:05:09;2.70;;;1.80;;
37051;SDS011;22964;52.272;13.356;2023-07-02T02:07:35;2.58;;;1.63;;
37051;SDS011;22964;52.272;13.356;2023-07-02T02:10:02;3.58;;;1.90;;
37051;SDS011;22964;52.272;13.356;2023-07-02T02:12:29;2.05;;;1.63;;
37051;SDS011;22964;52.272;13.356;2023-07-02T02:14:56;2.83;;;1.90;;
37051;SDS011;22964;52.272;13.356;2023-07-02T02:17:22;2.17;;;1.70;;
37051;SDS011;22964;52.272;13.356;2023-07-02T02:19:49;2.55;;;1.70;;
37051;SDS011;22964;52.272;13.356;2023-07-02T02:22:15;2.85;;;1.70;;
37051;SDS011;22964;52.272;13.356;2023-07-02T02:24:42;2.53;;;1.70;;
37051;SDS011;22964;52.272;13.356;2023-07-02T02:27:08;3.90;;;1.70;;
37051;SDS011;22964;52.272;13.356;2023-07-02T02:29:34;3.38;;;1.67;;
37051;SDS011;22964;52.272;13.356;2023-07-02T02:32:00;2.97;;;1.67;;
37051;SDS011;22964;52.272;13.356;2023-07-02T02:34:26;2.38;;;1.60;;
37051;SDS011;22964;52.272;13.356;2023-07-02T02:36:51;2.38;;;1.60;;
37051;SDS011;22964;52.272;13.356;2023-07-02T02:39:20;3.83;;;2.38;;
37051;SDS011;22964;52.272;13.356;2023-07-02T02:41:46;2.60;;;1.50;;
37051;SDS011;22964;52.272;13.356;2023-07-02T02:44:15;2.80;;;1.60;;
37051;SDS011;22964;52.272;13.356;2023-07-02T02:46:40;3.65;;;1.50;;
37051;SDS011;22964;52.272;13.356;2023-07-02T02:49:06;2.22;;;1.60;;
37051;SDS011;22964;52.272;13.356;2023-07-02T02:51:32;1.85;;;1.55;;
37051;SDS011;22964;52.272;13.356;2023-07-02T02:53:58;2.33;;;1.60;;
37051;SDS011;22964;52.272;13.356;2023-07-02T02:56:23;2.83;;;1.70;;
37051;SDS011;22964;52.272;13.356;2023-07-02T02:58:49;2.88;;;1.60;;
37051;SDS011;22964;52.272;13.356;2023-07-02T03:01:15;3.03;;;1.80;;
37051;SDS011;22964;52.272;13.356;2023-07-02T03:03:41;2.83;;;1.70;;
37051;SDS011;22964;52.272;13.356;2023-07-02T03:06:13;2.72;;;1.50;;
37051;SDS011;22964;52.272;13.356;2023-07-02T03:08:40;2.78;;;1.80;;
37051;SDS011;22964;52.272;13.356;2023-07-02T03:11:06;3.00;;;1.48;;
37051;SDS011;22964;52.272;13.356;2023-07-02T03:13:31;2.92;;;1.80;;
37051;SDS011;22964;52.272;13.356;2023-07-02T03:15:57;3.15;;;1.80;;
37051;SDS011;22964;52.272;13.356;2023-07-02T03:18:23;2.38;;;1.77;;
37051;SDS011;22964;52.272;13.356;2023-07-02T03:20:49;4.78;;;1.85;;
37051;SDS011;22964;52.272;13.356;2023-07-02T03:23:15;2.92;;;1.88;;
37051;SDS011;22964;52.272;13.356;2023-07-02T03:25:40;2.78;;;1.60;;
37051;SDS011;22964;52.272;13.356;2023-07-02T03:28:06;2.45;;;1.60;;
37051;SDS011;22964;52.272;13.356;2023-07-02T03:30:32;3.08;;;1.75;;
37051;SDS011;22964;52.272;13.356;2023-07-02T03:32:57;2.92;;;1.70;;
37051;SDS011;22964;52.272;13.356;2023-07-02T03:35:23;2.35;;;1.70;;
37051;SDS011;22964;52.272;13.356;2023-07-02T03:37:49;2.63;;;1.70;;
37051;SDS011;22964;52.272;13.356;2023-07-02T03:40:15;2.65;;;1.70;;
37051;SDS011;22964;52.272;13.356;2023-07-02T03:42:41;3.85;;;1.83;;
37051;SDS011;22964;52.272;13.356;2023-07-02T03:45:08;4.05;;;1.70;;
37051;SDS011;22964;52.272;13.356;2023-07-02T03:47:34;2.03;;;1.55;;
37051;SDS011;22964;52.272;13.356;2023-07-02T03:50:00;2.70;;;1.50;;
37051;SDS011;22964;52.272;13.356;2023-07-02T03:52:25;3.25;;;1.60;;
37051;SDS011;22964;52.272;13.356;2023-07-02T03:54:51;2.38;;;1.60;;
37051;SDS011;22964;52.272;13.356;2023-07-02T03:57:17;4.40;;;1.75;;
37051;SDS011;22964;52.272;13.356;2023-07-02T03:59:43;3.30;;;1.52;;
37051;SDS011;22964;52.272;13.356;2023-07-02T04:02:08;2.50;;;1.60;;
37051;SDS011;22964;52.272;13.356;2023-07-02T04:04:34;4.45;;;1.70;;
37051;SDS011;22964;52.272;13.356;2023-07-02T04:07:00;2.35;;;1.70;;
37051;SDS011;22964;52.272;13.356;2023-07-02T04:09:27;1.95;;;1.50;;
37051;SDS011;22964;52.272;13.356;2023-07-02T04:11:53;2.63;;;1.60;;
37051;SDS011;22964;52.272;13.356;2023-07-02T04:14:18;4.75;;;1.60;;
37051;SDS011;22964;52.272;13.356;2023-07-02T04:16:44;2.53;;;1.52;;
37051;SDS011;22964;52.272;13.356;2023-07-02T04:19:10;1.67;;;1.38;;
37051;SDS011;22964;52.272;13.356;2023-07-02T04:21:36;2.78;;;1.50;;
37051;SDS011;22964;52.272;13.356;2023-07-02T04:24:01;2.25;;;1.40;;
37051;SDS011;22964;52.272;13.356;2023-07-02T04:26:27;2.50;;;1.45;;
37051;SDS011;22964;52.272;13.356;2023-07-02T04:28:54;1.75;;;1.40;;
37051;SDS011;22964;52.272;13.356;2023-07-02T04:31:20;3.80;;;1.38;;
37051;SDS011;22964;52.272;13.356;2023-07-02T04:33:46;2.38;;;1.60;;
37051;SDS011;22964;52.272;13.356;2023-07-02T04:36:12;2.35;;;1.50;;
37051;SDS011;22964;52.272;13.356;2023-07-02T04:38:38;2.05;;;1.42;;
37051;SDS011;22964;52.272;13.356;2023-07-02T04:41:04;1.80;;;1.30;;
37051;SDS011;22964;52.272;13.356;2023-07-02T04:43:31;3.13;;;1.40;;
37051;SDS011;22964;52.272;13.356;2023-07-02T04:45:58;3.20;;;1.50;;
37051;SDS011;22964;52.272;13.356;2023-07-02T04:48:24;2.40;;;1.45;;
37051;SDS011;22964;52.272;13.356;2023-07-02T04:50:49;4.78;;;1.58;;
37051;SDS011;22964;52.272;13.356;2023-07-02T04:53:15;4.57;;;1.33;;
37051;SDS011;22964;52.272;13.356;2023-07-02T04:55:41;2.40;;;1.50;;
37051;SDS011;22964;52.272;13.356;2023-07-02T04:58:07;2.22;;;1.40;;
37051;SDS011;22964;52.272;13.356;2023-07-02T05:00:33;2.20;;;1.60;;
37051;SDS011;22964;52.272;13.356;2023-07-02T05:02:58;2.17;;;1.50;;
37051;SDS011;22964;52.272;13.356;2023-07-02T05:05:24;2.63;;;1.55;;
37051;SDS011;22964;52.272;13.356;2023-07-02T05:07:49;2.40;;;1.42;;
37051;SDS011;22964;52.272;13.356;2023-07-02T05:10:15;3.25;;;1.83;;
37051;SDS011;22964;52.272;13.356;2023-07-02T05:12:41;3.30;;;1.70;;
37051;SDS011;22964;52.272;13.356;2023-07-02T05:15:07;3.25;;;1.48;;
37051;SDS011;22964;52.272;13.356;2023-07-02T05:17:33;2.67;;;1.60;;
37051;SDS011;22964;52.272;13.356;2023-07-02T05:20:01;2.72;;;1.38;;
37051;SDS011;22964;52.272;13.356;2023-07-02T05:22:30;2.65;;;1.60;;
37051;SDS011;22964;52.272;13.356;2023-07-02T05:24:56;3.53;;;1.73;;
37051;SDS011;22964;52.272;13.356;2023-07-02T05:27:22;2.45;;;1.40;;
37051;SDS011;22964;52.272;13.356;2023-07-02T05:29:47;2.17;;;1.50;;
37051;SDS011;22964;52.272;13.356;2023-07-02T05:32:13;3.65;;;1.50;;
37051;SDS011;22964;52.272;13.356;2023-07-02T05:34:39;3.63;;;1.70;;
37051;SDS011;22964;52.272;13.356;2023-07-02T05:37:05;2.30;;;1.48;;
37051;SDS011;22964;52.272;13.356;2023-07-02T05:39:31;3.75;;;1.65;;
37051;SDS011;22964;52.272;13.356;2023-07-02T05:41:58;2.17;;;1.45;;
37051;SDS011;22964;52.272;13.356;2023-07-02T05:44:24;2.40;;;1.50;;
37051;SDS011;22964;52.272;13.356;2023-07-02T05:46:49;2.78;;;1.52;;
37051;SDS011;22964;52.272;13.356;2023-07-02T05:49:15;4.80;;;1.50;;
37051;SDS011;22964;52.272;13.356;2023-07-02T05:51:41;3.45;;;1.45;;
37051;SDS011;22964;52.272;13.356;2023-07-02T05:54:06;3.35;;;1.52;;
37051;SDS011;22964;52.272;13.356;2023-07-02T05:56:32;2.80;;;1.55;;
37051;SDS011;22964;52.272;13.356;2023-07-02T05:58:58;2.63;;;1.60;;
37051;SDS011;22964;52.272;13.356;2023-07-02T06:01:23;1.55;;;1.30;;
37051;SDS011;22964;52.272;13.356;2023-07-02T06:03:49;2.63;;;1.60;;
37051;SDS011;22964;52.272;13.356;2023-07-02T06:06:15;3.50;;;1.50;;
37051;SDS011;22964;52.272;13.356;2023-07-02T06:08:41;3.13;;;1.60;;
37051;SDS011;22964;52.272;13.356;2023-07-02T06:11:07;2.55;;;1.50;;
37051;SDS011;22964;52.272;13.356;2023-07-02T06:13:34;2.58;;;1.40;;
37051;SDS011;22964;52.272;13.356;2023-07-02T06:16:00;6.32;;;1.73;;
37051;SDS011;22964;52.272;13.356;2023-07-02T06:18:26;3.08;;;1.55;;
37051;SDS011;22964;52.272;13.356;2023-07-02T06:20:51;2.83;;;1.60;;
37051;SDS011;22964;52.272;13.356;2023-07-02T06:23:17;4.30;;;1.60;;
37051;SDS011;22964;52.272;13.356;2023-07-02T06:25:43;5.25;;;1.70;;
37051;SDS011;22964;52.272;13.356;2023-07-02T06:28:09;5.53;;;1.60;;
37051;SDS011;22964;52.272;13.356;2023-07-02T06:30:35;5.32;;;1.70;;
37051;SDS011;22964;52.272;13.356;2023-07-02T06:33:01;2.95;;;1.70;;
37051;SDS011;22964;52.272;13.356;2023-07-02T06:35:27;3.30;;;1.52;;
37051;SDS011;22964;52.272;13.356;2023-07-02T06:37:53;3.08;;;1.67;;
37051;SDS011;22964;52.272;13.356;2023-07-02T06:40:19;2.75;;;1.80;;
37051;SDS011;22964;52.272;13.356;2023-07-02T06:42:45;3.03;;;1.60;;
37051;SDS011;22964;52.272;13.356;2023-07-02T06:45:11;2.97;;;1.67;;
37051;SDS011;22964;52.272;13.356;2023-07-02T06:47:37;3.20;;;1.42;;
37051;SDS011;22964;52.272;13.356;2023-07-02T06:50:03;2.78;;;1.50;;
37051;SDS011;22964;52.272;13.356;2023-07-02T06:52:29;7.05;;;1.70;;
37051;SDS011;22964;52.272;13.356;2023-07-02T06:54:55;5.32;;;1.85;;
37051;SDS011;22964;52.272;13.356;2023-07-02T06:57:21;2.92;;;1.60;;
37051;SDS011;22964;52.272;13.356;2023-07-02T06:59:46;2.83;;;1.77;;
37051;SDS011;22964;52.272;13.356;2023-07-02T07:02:12;3.33;;;1.58;;
37051;SDS011;22964;52.272;13.356;2023-07-02T07:04:38;3.58;;;1.75;;
37051;SDS011;22964;52.272;13.356;2023-07-02T07:07:03;3.20;;;1.50;;
37051;SDS011;22964;52.272;13.356;2023-07-02T07:09:29;3.47;;;1.88;;
37051;SDS011;22964;52.272;13.356;2023-07-02T07:11:55;2.92;;;1.60;;
37051;SDS011;22964;52.272;13.356;2023-07-02T07:14:21;3.95;;;2.00;;
37051;SDS011;22964;52.272;13.356;2023-07-02T07:16:47;3.10;;;1.67;;
37051;SDS011;22964;52.272;13.356;2023-07-02T07:19:13;3.08;;;1.60;;
37051;SDS011;22964;52.272;13.356;2023-07-02T07:21:38;2.75;;;1.60;;
37051;SDS011;22964;52.272;13.356;2023-07-02T07:24:05;2.42;;;1.40;;
37051;SDS011;22964;52.272;13.356;2023-07-02T07:26:31;2.47;;;1.50;;
37051;SDS011;22964;52.272;13.356;2023-07-02T07:28:57;3.63;;;1.90;;
37051;SDS011;22964;52.272;13.356;2023-07-02T07:31:23;2.72;;;1.50;;
37051;SDS011;22964;52.272;13.356;2023-07-02T07:33:49;2.90;;;1.58;;
37051;SDS011;22964;52.272;13.356;2023-07-02T07:36:15;3.08;;;1.40;;
37051;SDS011;22964;52.272;13.356;2023-07-02T07:38:42;2.15;;;1.40;;
37051;SDS011;22964;52.272;13.356;2023-07-02T07:41:09;2.33;;;1.50;;
37051;SDS011;22964;52.272;13.356;2023-07-02T07:43:34;3.85;;;1.60;;
37051;SDS011;22964;52.272;13.356;2023-07-02T07:46:00;3.03;;;1.45;;
37051;SDS011;22964;52.272;13.356;2023-07-02T07:48:26;4.03;;;1.60;;
37051;SDS011;22964;52.272;13.356;2023-07-02T07:50:52;3.03;;;1.60;;
37051;SDS011;22964;52.272;13.356;2023-07-02T07:53:17;4.40;;;1.65;;
37051;SDS011;22964;52.272;13.356;2023-07-02T07:55:43;4.43;;;1.80;;
37051;SDS011;22964;52.272;13.356;2023-07-02T07:58:09;2.97;;;1.63;;
37051;SDS011;22964;52.272;13.356;2023-07-02T08:00:34;2.80;;;1.83;;
37051;SDS011;22964;52.272;13.356;2023-07-02T08:03:01;2.15;;;1.40;;
37051;SDS011;22964;52.272;13.356;2023-07-02T08:05:28;2.63;;;1.42;;
37051;SDS011;22964;52.272;13.356;2023-07-02T08:07:54;3.00;;;1.40;;
37051;SDS011;22964;52.272;13.356;2023-07-02T08:10:20;3.42;;;1.60;;
37051;SDS011;22964;52.272;13.356;2023-07-02T08:12:46;3.85;;;1.40;;
37051;SDS011;22964;52.272;13.356;2023-07-02T08:15:13;2.38;;;1.58;;
37051;SDS011;22964;52.272;13.356;2023-07-02T08:17:39;3.15;;;1.60;;
37051;SDS011;22964;52.272;13.356;2023-07-02T08:20:04;3.55;;;1.50;;
37051;SDS011;22964;52.272;13.356;2023-07-02T08:22:35;3.72;;;1.50;;
37051;SDS011;22964;52.272;13.356;2023-07-02T08:25:02;3.70;;;1.55;;
37051;SDS011;22964;52.272;13.356;2023-07-02T08:27:28;3.25;;;1.50;;
37051;SDS011;22964;52.272;13.356;2023-07-02T08:29:54;2.30;;;1.50;;
37051;SDS011;22964;52.272;13.356;2023-07-02T08:32:20;2.92;;;1.80;;
37051;SDS011;22964;52.272;13.356;2023-07-02T08:34:46;2.47;;;1.60;;
37051;SDS011;22964;52.272;13.356;2023-07-02T08:37:11;2.92;;;1.60;;
37051;SDS011;22964;52.272;13.356;2023-07-02T08:39:37;2.35;;;1.50;;
37051;SDS011;22964;52.272;13.356;2023-07-02T08:42:07;3.47;;;1.70;;
37051;SDS011;22964;52.272;13.356;2023-07-02T08:44:33;5.70;;;1.98;;
37051;SDS011;22964;52.272;13.356;2023-07-02T08:47:00;3.83;;;2.10;;
37051;SDS011;22964;52.272;13.356;2023-07-02T08:49:26;3.78;;;1.90;;
37051;SDS011;22964;52.272;13.356;2023-07-02T08:51:52;3.15;;;1.92;;
37051;SDS011;22964;52.272;13.356;2023-07-02T08:54:18;4.38;;;1.95;;
37051;SDS011;22964;52.272;13.356;2023-07-02T08:56:45;4.65;;;2.15;;
37051;SDS011;22964;52.272;13.356;2023-07-02T08:59:12;4.68;;;2.40;;
37051;SDS011;22964;52.272;13.356;2023-07-02T09:01:48;4.47;;;2.47;;
37051;SDS011;22964;52.272;13.356;2023-07-02T09:04:18;4.22;;;2.30;;
37051;SDS011;22964;52.272;13.356;2023-07-02T09:07:04;3.78;;;2.00;;
37051;SDS011;22964;52.272;13.356;2023-07-02T09:09:48;7.00;;;2.05;;
37051;SDS011;22964;52.272;13.356;2023-07-02T09:12:27;4.47;;;2.35;;
37051;SDS011;22964;52.272;13.356;2023-07-02T09:14:58;4.32;;;1.95;;
37051;SDS011;22964;52.272;13.356;2023-07-02T09:17:30;3.55;;;2.05;;
37051;SDS011;22964;52.272;13.356;2023-07-02T09:20:01;4.43;;;2.25;;
37051;SDS011;22964;52.272;13.356;2023-07-02T09:22:30;4.60;;;2.20;;
37051;SDS011;22964;52.272;13.356;2023-07-02T09:24:56;3.92;;;2.28;;
37051;SDS011;22964;52.272;13.356;2023-07-02T09:27:36;4.25;;;2.20;;
37051;SDS011;22964;52.272;13.356;2023-07-02T09:30:07;3.50;;;2.30;;
37051;SDS011;22964;52.272;13.356;2023-07-02T09:32:34;3.78;;;2.22;;
37051;SDS011;22964;52.272;13.356;2023-07-02T09:35:00;4.05;;;2.30;;
37051;SDS011;22964;52.272;13.356;2023-07-02T09:37:27;3.55;;;2.20;;
37051;SDS011;22964;52.272;13.356;2023-07-02T09:39:53;3.20;;;1.98;;
37051;SDS011;22964;52.272;13.356;2023-07-02T09:42:21;4.38;;;2.20;;
37051;SDS011;22964;52.272;13.356;2023-07-02T09:44:47;3.30;;;2.00;;
37051;SDS011;22964;52.272;13.356;2023-07-02T09:47:17;5.18;;;2.20;;
37051;SDS011;22964;52.272;13.356;2023-07-02T09:49:59;3.25;;;2.00;;
37051;SDS011;22964;52.272;13.356;2023-07-02T09:52:30;2.97;;;2.00;;
37051;SDS011;22964;52.272;13.356;2023-07-02T09:54:58;3.88;;;2.15;;
37051;SDS011;22964;52.272;13.356;2023-07-02T09:57:24;3.33;;;2.10;;
37051;SDS011;22964;52.272;13.356;2023-07-02T09:59:50;4.75;;;2.15;;
37051;SDS011;22964;52.272;13.356;2023-07-02T10:02:16;3.85;;;2.40;;
37051;SDS011;22964;52.272;13.356;2023-07-02T10:04:43;3.97;;;2.35;;
37051;SDS011;22964;52.272;13.356;2023-07-02T10:07:09;3.88;;;2.20;;
37051;SDS011;22964;52.272;13.356;2023-07-02T10:09:40;3.13;;;2.08;;
37051;SDS011;22964;52.272;13.356;2023-07-02T10:14:46;4.30;;;2.58;;
37051;SDS011;22964;52.272;13.356;2023-07-02T10:17:28;4.70;;;2.47;;
37051;SDS011;22964;52.272;13.356;2023-07-02T10:19:59;5.57;;;2.78;;
37051;SDS011;22964;52.272;13.356;2023-07-02T10:22:49;5.72;;;2.90;;
37051;SDS011;22964;52.272;13.356;2023-07-02T10:25:25;6.13;;;2.95;;
37051;SDS011;22964;52.272;13.356;2023-07-02T10:27:51;5.03;;;3.13;;
37051;SDS011;22964;52.272;13.356;2023-07-02T10:30:17;5.25;;;2.80;;
37051;SDS011;22964;52.272;13.356;2023-07-02T10:32:43;7.57;;;3.10;;
37051;SDS011;22964;52.272;13.356;2023-07-02T10:35:15;6.93;;;3.92;;
37051;SDS011;22964;52.272;13.356;2023-07-02T10:37:43;5.63;;;3.10;;
37051;SDS011;22964;52.272;13.356;2023-07-02T10:40:09;6.32;;;2.92;;
37051;SDS011;22964;52.272;13.356;2023-07-02T10:42:45;7.82;;;3.28;;
37051;SDS011;22964;52.272;13.356;2023-07-02T10:45:16;7.78;;;3.25;;
37051;SDS011;22964;52.272;13.356;2023-07-02T10:47:42;6.40;;;3.47;;
37051;SDS011;22964;52.272;13.356;2023-07-02T10:50:18;7.80;;;3.58;;
37051;SDS011;22964;52.272;13.356;2023-07-02T10:52:46;6.75;;;3.05;;
37051;SDS011;22964;52.272;13.356;2023-07-02T10:55:18;6.88;;;3.38;;
37051;SDS011;22964;52.272;13.356;2023-07-02T10:57:45;6.22;;;3.47;;
37051;SDS011;22964;52.272;13.356;2023-07-02T11:00:12;7.88;;;3.80;;
37051;SDS011;22964;52.272;13.356;2023-07-02T11:02:38;8.10;;;3.85;;
37051;SDS011;22964;52.272;13.356;2023-07-02T11:05:07;9.35;;;3.95;;
37051;SDS011;22964;52.272;13.356;2023-07-02T11:07:40;9.82;;;4.20;;
37051;SDS011;22964;52.272;13.356;2023-07-02T11:10:06;8.85;;;3.67;;
37051;SDS011;22964;52.272;13.356;2023-07-02T11:12:33;10.55;;;3.83;;
37051;SDS011;22964;52.272;13.356;2023-07-02T11:15:16;12.45;;;4.00;;
37051;SDS011;22964;52.272;13.356;2023-07-02T11:17:45;6.43;;;3.45;;
37051;SDS011;22964;52.272;13.356;2023-07-02T11:20:12;5.63;;;3.28;;
37051;SDS011;22964;52.272;13.356;2023-07-02T11:22:40;7.38;;;3.30;;
37051;SDS011;22964;52.272;13.356;2023-07-02T11:27:42;6.35;;;3.40;;
37051;SDS011;22964;52.272;13.356;2023-07-02T11:30:08;13.43;;;3.72;;
37051;SDS011;22964;52.272;13.356;2023-07-02T11:32:36;9.07;;;3.95;;
37051;SDS011;22964;52.272;13.356;2023-07-02T11:35:13;8.77;;;4.20;;
37051;SDS011;22964;52.272;13.356;2023-07-02T11:37:41;8.65;;;3.47;;
37051;SDS011;22964;52.272;13.356;2023-07-02T11:40:07;8.32;;;3.60;;
37051;SDS011;22964;52.272;13.356;2023-07-02T11:42:33;8.30;;;3.30;;
37051;SDS011;22964;52.272;13.356;2023-07-02T11:44:59;8.98;;;3.55;;
37051;SDS011;22964;52.272;13.356;2023-07-02T11:47:25;8.10;;;3.28;;
37051;SDS011;22964;52.272;13.356;2023-07-02T11:49:52;6.70;;;3.30;;
37051;SDS011;22964;52.272;13.356;2023-07-02T11:52:20;7.68;;;3.72;;
37051;SDS011;22964;52.272;13.356;2023-07-02T11:54:49;9.43;;;3.80;;
37051;SDS011;22964;52.272;13.356;2023-07-02T11:57:14;8.68;;;3.88;;
37051;SDS011;22964;52.272;13.356;2023-07-02T11:59:41;9.40;;;3.58;;
37051;SDS011;22964;52.272;13.356;2023-07-02T12:02:06;7.00;;;3.58;;
37051;SDS011;22964;52.272;13.356;2023-07-02T12:04:32;8.77;;;3.63;;
37051;SDS011;22964;52.272;13.356;2023-07-02T12:06:59;6.57;;;3.47;;
37051;SDS011;22964;52.272;13.356;2023-07-02T12:09:26;7.95;;;3.45;;
37051;SDS011;22964;52.272;13.356;2023-07-02T12:11:52;9.13;;;3.50;;
37051;SDS011;22964;52.272;13.356;2023-07-02T12:14:18;7.40;;;3.95;;
37051;SDS011;22964;52.272;13.356;2023-07-02T12:16:44;5.90;;;3.38;;
37051;SDS011;22964;52.272;13.356;2023-07-02T12:19:10;8.23;;;4.13;;
37051;SDS011;22964;52.272;13.356;2023-07-02T12:21:35;10.23;;;4.25;;
37051;SDS011;22964;52.272;13.356;2023-07-02T12:24:02;9.38;;;3.45;;
37051;SDS011;22964;52.272;13.356;2023-07-02T12:26:29;8.65;;;4.00;;
37051;SDS011;22964;52.272;13.356;2023-07-02T12:28:55;8.98;;;3.53;;
37051;SDS011;22964;52.272;13.356;2023-07-02T12:31:20;7.88;;;3.67;;
37051;SDS011;22964;52.272;13.356;2023-07-02T12:33:46;8.63;;;3.80;;
37051;SDS011;22964;52.272;13.356;2023-07-02T12:36:12;8.82;;;4.13;;
37051;SDS011;22964;52.272;13.356;2023-07-02T12:38:39;10.23;;;3.78;;
37051;SDS011;22964;52.272;13.356;2023-07-02T12:41:04;9.45;;;3.65;;
37051;SDS011;22964;52.272;13.356;2023-07-02T12:43:30;8.48;;;3.78;;
37051;SDS011;22964;52.272;13.356;2023-07-02T12:45:56;7.78;;;3.85;;
37051;SDS011;22964;52.272;13.356;2023-07-02T12:48:22;8.63;;;3.90;;
37051;SDS011;22964;52.272;13.356;2023-07-02T12:50:56;7.70;;;3.63;;
37051;SDS011;22964;52.272;13.356;2023-07-02T12:53:24;8.55;;;3.97;;
37051;SDS011;22964;52.272;13.356;2023-07-02T12:55:51;8.23;;;3.85;;
37051;SDS011;22964;52.272;13.356;2023-07-02T12:58:17;7.00;;;4.03;;
37051;SDS011;22964;52.272;13.356;2023-07-02T13:00:43;10.68;;;4.22;;
37051;SDS011;22964;52.272;13.356;2023-07-02T13:03:10;8.18;;;3.72;;
37051;SDS011;22964;52.272;13.356;2023-07-02T13:05:37;7.68;;;3.80;;
37051;SDS011;22964;52.272;13.356;2023-07-02T13:08:03;8.07;;;3.60;;
37051;SDS011;22964;52.272;13.356;2023-07-02T13:10:29;9.00;;;3.60;;
37051;SDS011;22964;52.272;13.356;2023-07-02T13:12:55;9.10;;;3.78;;
37051;SDS011;22964;52.272;13.356;2023-07-02T13:15:21;8.35;;;3.78;;
37051;SDS011;22964;52.272;13.356;2023-07-02T13:17:47;12.15;;;3.72;;
37051;SDS011;22964;52.272;13.356;2023-07-02T13:20:13;7.50;;;3.58;;
37051;SDS011;22964;52.272;13.356;2023-07-02T13:22:39;8.05;;;3.72;;
37051;SDS011;22964;52.272;13.356;2023-07-02T13:25:05;8.82;;;3.50;;
37051;SDS011;22964;52.272;13.356;2023-07-02T13:27:31;8.10;;;3.97;;
37051;SDS011;22964;52.272;13.356;2023-07-02T13:29:58;7.13;;;3.55;;
37051;SDS011;22964;52.272;13.356;2023-07-02T13:32:23;7.93;;;3.80;;
37051;SDS011;22964;52.272;13.356;2023-07-02T13:34:50;11.65;;;3.22;;
37051;SDS011;22964;52.272;13.356;2023-07-02T13:37:15;8.18;;;3.78;;
37051;SDS011;22964;52.272;13.356;2023-07-02T13:39:45;12.10;;;3.60;;
37051;SDS011;22964;52.272;13.356;2023-07-02T13:42:11;7.03;;;3.47;;
37051;SDS011;22964;52.272;13.356;2023-07-02T13:44:37;8.00;;;3.75;;
37051;SDS011;22964;52.272;13.356;2023-07-02T13:47:03;7.80;;;3.28;;
37051;SDS011;22964;52.272;13.356;2023-07-02T13:49:28;7.97;;;3.22;;
37051;SDS011;22964;52.272;13.356;2023-07-02T13:51:55;8.13;;;3.55;;
37051;SDS011;22964;52.272;13.356;2023-07-02T13:54:20;5.63;;;3.25;;
37051;SDS011;22964;52.272;13.356;2023-07-02T13:56:46;8.77;;;3.42;;
37051;SDS011;22964;52.272;13.356;2023-07-02T13:59:12;7.70;;;4.00;;
37051;SDS011;22964;52.272;13.356;2023-07-02T14:01:39;11.25;;;4.07;;
37051;SDS011;22964;52.272;13.356;2023-07-02T14:04:05;10.80;;;3.97;;
37051;SDS011;22964;52.272;13.356;2023-07-02T14:06:31;7.13;;;3.42;;
37051;SDS011;22964;52.272;13.356;2023-07-02T14:08:57;5.43;;;3.40;;
37051;SDS011;22964;52.272;13.356;2023-07-02T14:11:23;7.65;;;4.03;;
37051;SDS011;22964;52.272;13.356;2023-07-02T14:13:50;7.90;;;3.40;;
37051;SDS011;22964;52.272;13.356;2023-07-02T14:16:15;5.82;;;3.60;;
37051;SDS011;22964;52.272;13.356;2023-07-02T14:18:41;11.00;;;3.38;;
37051;SDS011;22964;52.272;13.356;2023-07-02T14:21:07;6.28;;;3.42;;
37051;SDS011;22964;52.272;13.356;2023-07-02T14:23:33;6.80;;;3.33;;
37051;SDS011;22964;52.272;13.356;2023-07-02T14:25:59;6.50;;;3.40;;
37051;SDS011;22964;52.272;13.356;2023-07-02T14:28:24;8.05;;;3.90;;
37051;SDS011;22964;52.272;13.356;2023-07-02T14:31:01;8.02;;;3.60;;
37051;SDS011;22964;52.272;13.356;2023-07-02T14:33:29;6.57;;;3.50;;
37051;SDS011;22964;52.272;13.356;2023-07-02T14:35:56;8.57;;;3.38;;
37051;SDS011;22964;52.272;13.356;2023-07-02T14:38:22;7.53;;;3.53;;